createdAt,value
2023-04-18T00:02:23.393Z,69.63
2023-04-18T00:04:51.751Z,69.69
2023-04-18T00:07:19.972Z,69.56
2023-04-18T00:09:47.918Z,69.60
2023-04-18T00:12:16.196Z,69.52
2023-04-18T00:14:44.406Z,69.52
2023-04-18T00:17:13.590Z,69.61
2023-04-18T00:19:43.391Z,69.66
2023-04-18T00:23:13.307Z,69.74
2023-04-18T00:26:21.766Z,69.94
2023-04-18T00:29:09.826Z,69.96
2023-04-18T00:31:39.711Z,69.84
2023-04-18T00:34:07.703Z,69.84
2023-04-18T00:36:35.921Z,69.88
2023-04-18T00:39:04.131Z,69.81
2023-04-18T00:41:32.712Z,69.80
2023-04-18T00:44:01.148Z,69.74
2023-04-18T00:46:29.270Z,69.74
2023-04-18T00:48:57.475Z,69.85
2023-04-18T00:51:25.747Z,69.80
2023-04-18T00:53:54.130Z,69.73
2023-04-18T00:56:23.839Z,69.85
2023-04-18T00:58:51.995Z,69.82
2023-04-18T01:01:20.078Z,69.95
2023-04-18T01:03:49.479Z,69.86
2023-04-18T01:06:18.335Z,69.90
2023-04-18T01:08:46.506Z,70.01
2023-04-18T01:11:34.388Z,70.08
2023-04-18T01:14:05.546Z,70.02
2023-04-18T01:16:40.105Z,70.13
2023-04-18T01:19:08.519Z,70.14
2023-04-18T01:21:37.505Z,70.13
2023-04-18T01:24:12.555Z,70.16
2023-04-18T01:26:44.227Z,70.23
2023-04-18T01:29:12.439Z,70.24
2023-04-18T01:31:46.138Z,70.21
2023-04-18T01:34:18.173Z,70.27
2023-04-18T01:36:46.803Z,70.25
2023-04-18T01:39:15.552Z,70.32
2023-04-18T01:41:44.538Z,70.18
2023-04-18T01:44:12.842Z,70.13
2023-04-18T01:46:41.277Z,70.09
2023-04-18T01:49:10.034Z,70.05
2023-04-18T01:51:39.021Z,70.08
2023-04-18T01:54:15.788Z,70.06
2023-04-18T01:56:44.010Z,70.16
2023-04-18T01:59:12.096Z,70.12
2023-04-18T02:01:40.677Z,70.20
2023-04-18T02:04:09.004Z,70.25
2023-04-18T02:06:37.205Z,70.27
2023-04-18T02:09:05.355Z,70.27
2023-04-18T02:11:34.394Z,70.26
2023-04-18T02:14:05.153Z,70.27
2023-04-18T02:16:35.474Z,70.25
2023-04-18T02:19:12.533Z,70.34
2023-04-18T02:21:44.918Z,70.28
2023-04-18T02:24:13.806Z,70.33
2023-04-18T02:26:44.435Z,70.23
2023-04-18T02:29:12.720Z,70.30
2023-04-18T02:31:41.761Z,70.28
2023-04-18T02:34:10.735Z,70.15
2023-04-18T02:36:39.032Z,70.22
2023-04-18T02:39:07.131Z,70.23
2023-04-18T02:41:37.642Z,70.13
2023-04-18T02:44:07.172Z,70.17
2023-04-18T02:46:37.461Z,70.20
2023-04-18T02:49:07.540Z,70.24
2023-04-18T02:51:36.200Z,70.26
2023-04-18T02:54:05.183Z,70.24
2023-04-18T02:56:44.282Z,70.33
2023-04-18T02:59:27.835Z,70.43
2023-04-18T03:02:47.974Z,70.52
2023-04-18T03:05:47.055Z,70.66
2023-04-18T03:08:16.295Z,70.59
2023-04-18T03:10:44.324Z,70.62
2023-04-18T03:13:12.399Z,70.61
2023-04-18T03:16:01.203Z,70.62
2023-04-18T03:19:06.040Z,70.60
2023-04-18T03:21:36.213Z,70.59
2023-04-18T03:24:25.236Z,70.41
2023-04-18T03:26:54.153Z,70.61
2023-04-18T03:29:24.507Z,70.54
2023-04-18T03:31:52.955Z,70.50
2023-04-18T03:34:21.851Z,70.43
2023-04-18T03:36:50.255Z,70.25
2023-04-18T03:39:18.761Z,70.30
2023-04-18T03:41:47.236Z,70.24
2023-04-18T03:44:15.940Z,70.22
2023-04-18T03:46:44.508Z,70.35
2023-04-18T03:49:13.363Z,70.32
2023-04-18T03:51:49.710Z,70.39
2023-04-18T03:54:26.245Z,70.39
2023-04-18T03:56:55.937Z,70.40
2023-04-18T03:59:24.216Z,70.37
2023-04-18T04:01:52.313Z,70.36
2023-04-18T04:04:20.560Z,70.38
2023-04-18T04:07:09.227Z,70.40
2023-04-18T04:09:37.597Z,70.44
2023-04-18T04:12:07.368Z,70.43
2023-04-18T04:14:35.603Z,70.50
2023-04-18T04:17:04.947Z,70.37
2023-04-18T04:19:34.625Z,70.30
2023-04-18T04:22:09.301Z,70.26
2023-04-18T04:24:39.301Z,70.25
2023-04-18T04:27:08.205Z,70.24
2023-04-18T04:29:39.258Z,70.12
2023-04-18T04:32:08.313Z,69.86
2023-04-18T04:34:41.386Z,69.78
2023-04-18T04:37:14.143Z,69.83
2023-04-18T04:39:53.737Z,69.79
2023-04-18T04:42:41.218Z,69.76
2023-04-18T04:45:14.035Z,69.75
2023-04-18T04:47:42.079Z,69.60
2023-04-18T04:50:14.848Z,69.58
2023-04-18T04:52:43.419Z,69.59
2023-04-18T04:55:11.755Z,69.46
2023-04-18T04:57:45.055Z,69.32
2023-04-18T05:00:40.085Z,69.21
2023-04-18T05:03:09.918Z,69.29
2023-04-18T05:05:38.216Z,69.31
2023-04-18T05:08:26.352Z,69.33
2023-04-18T05:10:55.406Z,69.35
2023-04-18T05:13:23.368Z,69.33
2023-04-18T05:15:53.137Z,69.12
2023-04-18T05:18:21.957Z,69.04
2023-04-18T05:20:50.537Z,68.87
2023-04-18T05:23:18.631Z,68.70
2023-04-18T05:25:46.804Z,68.60
2023-04-18T05:28:55.212Z,68.39
2023-04-18T05:31:23.371Z,68.11
2023-04-18T05:33:51.365Z,67.90
2023-04-18T05:36:19.563Z,67.56
2023-04-18T05:38:55.737Z,67.41
2023-04-18T05:41:23.664Z,67.24
2023-04-18T05:44:04.250Z,67.26
2023-04-18T05:46:33.678Z,67.18
2023-04-18T05:49:02.498Z,67.14
2023-04-18T05:51:31.348Z,67.05
2023-04-18T05:53:59.720Z,66.61
2023-04-18T05:56:27.733Z,66.14
2023-04-18T05:58:55.987Z,65.74
2023-04-18T06:01:24.019Z,65.26
2023-04-18T06:03:52.022Z,65.26
2023-04-18T06:06:20.503Z,65.13
2023-04-18T06:08:48.663Z,64.81
2023-04-18T06:11:16.756Z,64.42
2023-04-18T06:13:44.690Z,63.82
2023-04-18T06:16:13.353Z,63.77
2023-04-18T06:18:41.450Z,62.97
2023-04-18T06:21:09.630Z,62.82
2023-04-18T06:23:38.619Z,62.73
2023-04-18T06:26:07.488Z,62.33
2023-04-18T06:29:14.000Z,61.95
2023-04-18T06:31:42.315Z,61.24
2023-04-18T06:34:10.397Z,61.09
2023-04-18T06:36:38.529Z,60.63
2023-04-18T06:39:06.992Z,60.06
2023-04-18T06:41:35.300Z,60.10
2023-04-18T06:44:04.638Z,59.85
2023-04-18T06:46:33.356Z,59.25
2023-04-18T06:49:01.616Z,58.95
2023-04-18T06:51:29.583Z,58.63
2023-04-18T06:53:58.209Z,58.54
2023-04-18T06:56:26.457Z,58.32
2023-04-18T06:59:14.668Z,58.33
2023-04-18T07:01:51.237Z,58.08
2023-04-18T07:04:19.797Z,57.67
2023-04-18T07:06:50.570Z,57.71
2023-04-18T07:09:18.846Z,57.65
2023-04-18T07:11:47.003Z,57.20
2023-04-18T07:14:15.258Z,56.76
2023-04-18T07:16:43.553Z,56.33
2023-04-18T07:19:12.000Z,55.69
2023-04-18T07:21:40.718Z,55.17
2023-04-18T07:24:09.056Z,55.25
2023-04-18T07:26:38.249Z,55.08
2023-04-18T07:29:06.524Z,54.72
2023-04-18T07:31:34.541Z,54.60
2023-04-18T07:34:02.634Z,54.46
2023-04-18T07:36:31.478Z,54.08
2023-04-18T07:38:59.815Z,53.68
2023-04-18T07:41:27.886Z,52.73
2023-04-18T07:43:56.514Z,52.60
2023-04-18T07:46:24.595Z,52.71
2023-04-18T07:48:52.923Z,51.71
2023-04-18T07:51:25.489Z,51.62
2023-04-18T07:53:53.427Z,50.62
2023-04-18T07:56:21.732Z,50.49
2023-04-18T07:59:02.409Z,50.16
2023-04-18T08:01:31.134Z,49.94
2023-04-18T08:04:02.037Z,48.99
2023-04-18T08:06:30.745Z,48.55
2023-04-18T08:08:59.117Z,48.51
2023-04-18T08:11:27.167Z,48.24
2023-04-18T08:13:55.408Z,48.11
2023-04-18T08:16:23.738Z,47.87
2023-04-18T08:18:52.036Z,47.16
2023-04-18T08:21:20.784Z,47.03
2023-04-18T08:23:49.238Z,47.07
2023-04-18T08:26:17.279Z,46.59
2023-04-18T08:28:46.581Z,46.14
2023-04-18T08:31:15.461Z,46.35
2023-04-18T08:33:43.529Z,46.01
2023-04-18T08:36:12.632Z,46.49
2023-04-18T08:38:40.677Z,47.03
2023-04-18T08:41:08.802Z,47.40
2023-04-18T08:43:37.831Z,47.20
2023-04-18T08:46:06.899Z,46.79
2023-04-18T08:48:34.899Z,47.04
2023-04-18T08:51:03.151Z,47.25
2023-04-18T08:53:33.939Z,47.13
2023-04-18T08:56:05.651Z,47.11
2023-04-18T08:58:34.989Z,46.82
2023-04-18T09:01:03.332Z,46.75
2023-04-18T09:03:43.392Z,46.28
2023-04-18T09:06:16.508Z,45.92
2023-04-18T09:09:04.010Z,45.31
2023-04-18T09:11:34.460Z,44.13
2023-04-18T09:14:24.402Z,44.06
2023-04-18T09:16:53.481Z,43.70
2023-04-18T09:19:21.913Z,43.90
2023-04-18T09:21:59.552Z,44.34
2023-04-18T09:24:34.443Z,44.08
2023-04-18T09:27:04.185Z,43.20
2023-04-18T09:29:50.025Z,43.30
2023-04-18T09:32:30.818Z,43.57
2023-04-18T09:35:04.014Z,44.03
2023-04-18T09:37:32.785Z,43.78
2023-04-18T09:40:00.881Z,43.76
2023-04-18T09:42:36.242Z,43.68
2023-04-18T09:45:06.624Z,42.80
2023-04-18T09:47:36.717Z,41.68
2023-04-18T09:50:07.543Z,40.96
2023-04-18T09:52:38.237Z,39.66
2023-04-18T09:55:09.483Z,39.63
2023-04-18T09:57:41.780Z,39.49
2023-04-18T10:00:24.171Z,38.93
2023-04-18T10:03:05.178Z,36.24
2023-04-18T10:05:35.738Z,37.04
2023-04-18T10:08:04.494Z,36.80
2023-04-18T10:10:33.231Z,36.53
2023-04-18T10:13:06.557Z,35.91
2023-04-18T10:15:35.009Z,35.93
2023-04-18T10:18:09.278Z,35.13
2023-04-18T10:20:37.263Z,35.69
2023-04-18T10:23:36.364Z,35.58
2023-04-18T10:26:11.268Z,34.92
2023-04-18T10:28:58.890Z,35.18
2023-04-18T10:31:28.757Z,35.62
2023-04-18T10:34:05.316Z,35.50
2023-04-18T10:36:33.797Z,34.87
2023-04-18T10:39:20.834Z,34.92
2023-04-18T10:41:51.171Z,34.14
2023-04-18T10:44:22.732Z,34.22
2023-04-18T10:46:51.220Z,34.55
2023-04-18T10:49:30.309Z,34.34
2023-04-18T10:52:02.433Z,34.15
2023-04-18T10:54:41.072Z,33.51
2023-04-18T10:57:10.266Z,32.48
2023-04-18T10:59:42.598Z,32.55
2023-04-18T11:02:30.180Z,32.91
2023-04-18T11:05:00.879Z,33.08
2023-04-18T11:07:46.153Z,33.44
2023-04-18T11:10:18.822Z,33.37
2023-04-18T11:12:47.489Z,33.39
2023-04-18T11:15:24.168Z,33.31
2023-04-18T11:17:59.943Z,33.32
2023-04-18T11:20:29.339Z,32.77
2023-04-18T11:22:59.474Z,32.63
2023-04-18T11:25:34.777Z,33.22
2023-04-18T11:28:04.957Z,33.55
2023-04-18T11:30:38.571Z,33.20
2023-04-18T11:33:12.027Z,33.28
2023-04-18T11:35:49.385Z,32.89
2023-04-18T11:38:18.670Z,32.74
2023-04-18T11:40:50.686Z,32.21
2023-04-18T11:43:25.625Z,31.76
2023-04-18T11:45:56.324Z,31.30
2023-04-18T11:48:25.012Z,31.80
2023-04-18T11:50:53.084Z,31.94
2023-04-18T11:53:38.101Z,31.47
2023-04-18T11:56:07.040Z,31.15
2023-04-18T11:58:36.511Z,31.14
2023-04-18T12:01:25.369Z,30.66
2023-04-18T12:04:01.418Z,30.46
2023-04-18T12:06:46.632Z,29.61
2023-04-18T12:09:15.908Z,29.60
2023-04-18T12:11:44.596Z,30.02
2023-04-18T12:14:22.297Z,29.54
2023-04-18T12:16:51.331Z,29.28
2023-04-18T12:19:20.855Z,29.82
2023-04-18T12:22:06.848Z,30.25
2023-04-18T12:24:36.207Z,30.35
2023-04-18T12:27:04.495Z,30.23
2023-04-18T12:29:40.902Z,30.43
2023-04-18T12:32:08.910Z,30.38
2023-04-18T12:34:36.938Z,30.35
2023-04-18T12:37:05.140Z,30.56
2023-04-18T12:39:33.265Z,30.36
2023-04-18T12:42:02.365Z,30.38
2023-04-18T12:44:30.619Z,30.36
2023-04-18T12:46:58.839Z,30.99
2023-04-18T12:49:26.979Z,30.92
2023-04-18T12:51:54.985Z,31.04
2023-04-18T12:54:22.953Z,31.31
2023-04-18T12:56:50.958Z,31.51
2023-04-18T12:59:18.854Z,31.32
2023-04-18T13:01:46.888Z,31.36
2023-04-18T13:04:15.401Z,32.09
2023-04-18T13:06:43.678Z,32.56
2023-04-18T13:09:12.142Z,32.81
2023-04-18T13:11:40.340Z,33.41
2023-04-18T13:14:08.438Z,34.14
2023-04-18T13:16:36.612Z,34.73
2023-04-18T13:19:04.599Z,35.42
2023-04-18T13:21:32.543Z,35.68
2023-04-18T13:24:01.126Z,36.22
2023-04-18T13:26:29.267Z,36.37
2023-04-18T13:28:57.449Z,36.41
2023-04-18T13:31:25.790Z,35.78
2023-04-18T13:33:53.742Z,35.44
2023-04-18T13:36:21.760Z,35.30
2023-04-18T13:38:51.514Z,35.37
2023-04-18T13:41:19.548Z,35.25
2023-04-18T13:43:47.521Z,35.45
2023-04-18T13:46:15.562Z,35.82
2023-04-18T13:48:43.557Z,35.88
2023-04-18T13:51:11.529Z,36.26
2023-04-18T13:53:39.550Z,35.84
2023-04-18T13:56:07.964Z,35.51
2023-04-18T13:58:36.292Z,35.41
2023-04-18T14:01:04.396Z,35.41
2023-04-18T14:03:34.160Z,35.29
2023-04-18T14:06:03.883Z,34.78
2023-04-18T14:08:31.975Z,35.19
2023-04-18T14:10:59.957Z,34.76
2023-04-18T14:13:28.198Z,34.83
2023-04-18T14:15:56.241Z,35.08
2023-04-18T14:18:24.772Z,35.25
2023-04-18T14:20:52.796Z,35.62
2023-04-18T14:23:22.925Z,35.76
2023-04-18T14:25:51.224Z,36.04
2023-04-18T14:28:21.653Z,36.11
2023-04-18T14:30:49.714Z,36.68
2023-04-18T14:33:18.504Z,36.96
2023-04-18T14:35:46.502Z,37.00
2023-04-18T14:38:14.518Z,36.95
2023-04-18T14:40:42.518Z,36.58
2023-04-18T14:43:10.431Z,36.43
2023-04-18T14:45:38.357Z,36.72
2023-04-18T14:48:08.134Z,37.29
2023-04-18T14:50:38.697Z,37.95
2023-04-18T14:53:07.685Z,37.77
2023-04-18T14:55:36.106Z,37.76
2023-04-18T14:58:04.399Z,37.96
2023-04-18T15:00:33.273Z,37.88
2023-04-18T15:03:01.538Z,38.44
2023-04-18T15:05:29.713Z,38.85
2023-04-18T15:07:58.367Z,39.04
2023-04-18T15:10:26.845Z,39.05
2023-04-18T15:12:54.834Z,38.77
2023-04-18T15:15:22.903Z,38.62
2023-04-18T15:17:51.319Z,38.71
2023-04-18T15:20:22.460Z,38.75
2023-04-18T15:22:51.922Z,38.91
2023-04-18T15:25:21.134Z,38.93
2023-04-18T15:27:49.317Z,39.20
2023-04-18T15:30:17.450Z,39.35
2023-04-18T15:32:45.702Z,39.45
2023-04-18T15:35:14.337Z,39.35
2023-04-18T15:37:42.325Z,39.59
2023-04-18T15:40:11.512Z,39.59
2023-04-18T15:42:39.511Z,39.62
2023-04-18T15:45:08.131Z,39.76
2023-04-18T15:47:36.335Z,39.65
2023-04-18T15:50:04.922Z,39.58
2023-04-18T15:52:33.166Z,39.44
2023-04-18T15:55:01.443Z,39.62
2023-04-18T15:57:29.891Z,39.43
2023-04-18T15:59:59.652Z,39.56
2023-04-18T16:02:28.003Z,39.75
2023-04-18T16:04:56.202Z,39.76
2023-04-18T16:07:24.164Z,39.95
2023-04-18T16:09:52.302Z,39.98
2023-04-18T16:12:20.348Z,40.21
2023-04-18T16:14:48.327Z,40.29
2023-04-18T16:17:16.384Z,40.64
2023-04-18T16:19:44.424Z,41.19
2023-04-18T16:22:12.617Z,42.78
2023-04-18T16:24:42.166Z,43.82
2023-04-18T16:27:10.540Z,44.51
2023-04-18T16:29:38.794Z,45.03
2023-04-18T16:32:06.925Z,45.28
2023-04-18T16:34:35.051Z,45.68
2023-04-18T16:37:03.228Z,45.90
2023-04-18T16:39:31.351Z,46.04
2023-04-18T16:41:59.501Z,46.50
2023-04-18T16:44:27.681Z,46.44
2023-04-18T16:46:55.705Z,46.76
2023-04-18T16:49:23.840Z,46.80
2023-04-18T16:51:52.165Z,47.20
2023-04-18T16:54:20.317Z,47.59
2023-04-18T16:56:50.790Z,47.49
2023-04-18T16:59:18.709Z,47.66
2023-04-18T17:01:47.003Z,48.19
2023-04-18T17:04:17.587Z,48.32
2023-04-18T17:06:46.690Z,48.70
2023-04-18T17:09:15.186Z,48.92
2023-04-18T17:11:43.658Z,49.28
2023-04-18T17:14:11.988Z,49.21
2023-04-18T17:16:42.120Z,49.53
2023-04-18T17:19:10.545Z,49.45
2023-04-18T17:21:38.651Z,49.71
2023-04-18T17:24:07.423Z,49.86
2023-04-18T17:26:37.164Z,50.29
2023-04-18T17:29:05.445Z,50.20
2023-04-18T17:31:34.097Z,50.35
2023-04-18T17:34:03.662Z,50.25
2023-04-18T17:36:31.778Z,50.20
2023-04-18T17:39:06.807Z,50.40
2023-04-18T17:41:37.896Z,50.61
2023-04-18T17:44:07.730Z,50.72
2023-04-18T17:46:36.198Z,50.92
2023-04-18T17:49:04.891Z,51.16
2023-04-18T17:51:33.027Z,51.33
2023-04-18T17:54:01.043Z,51.49
2023-04-18T17:56:30.557Z,51.47
2023-04-18T17:58:58.600Z,51.61
2023-04-18T18:01:30.273Z,51.60
2023-04-18T18:03:58.923Z,51.76
2023-04-18T18:06:29.873Z,51.57
2023-04-18T18:08:57.774Z,51.49
2023-04-18T18:11:28.330Z,51.29
2023-04-18T18:13:58.250Z,51.26
2023-04-18T18:16:26.586Z,51.52
2023-04-18T18:18:54.780Z,51.40
2023-04-18T18:21:23.022Z,51.45
2023-04-18T18:23:51.038Z,51.44
2023-04-18T18:26:19.082Z,51.53
2023-04-18T18:28:47.033Z,51.74
2023-04-18T18:31:14.948Z,52.08
2023-04-18T18:33:43.057Z,52.28
2023-04-18T18:36:11.194Z,52.29
2023-04-18T18:38:39.075Z,52.16
2023-04-18T18:41:08.003Z,52.30
2023-04-18T18:43:36.130Z,52.62
2023-04-18T18:46:04.206Z,52.72
2023-04-18T18:48:32.977Z,52.79
2023-04-18T18:51:01.521Z,52.96
2023-04-18T18:53:29.647Z,53.24
2023-04-18T18:55:57.604Z,53.53
2023-04-18T18:58:26.094Z,53.53
2023-04-18T19:00:56.197Z,53.76
2023-04-18T19:03:25.335Z,54.17
2023-04-18T19:05:53.460Z,54.40
2023-04-18T19:08:21.393Z,54.59
2023-04-18T19:10:50.684Z,55.03
2023-04-18T19:13:22.926Z,55.53
2023-04-18T19:15:51.317Z,55.44
2023-04-18T19:18:21.341Z,55.80
2023-04-18T19:20:50.453Z,56.12
2023-04-18T19:23:19.524Z,56.15
2023-04-18T19:25:47.448Z,56.33
2023-04-18T19:28:18.307Z,56.28
2023-04-18T19:30:46.599Z,56.41
2023-04-18T19:33:14.766Z,56.43
2023-04-18T19:35:44.421Z,56.42
2023-04-18T19:38:12.518Z,56.44
2023-04-18T19:40:40.526Z,56.44
2023-04-18T19:43:08.821Z,56.46
2023-04-18T19:45:37.209Z,56.35
2023-04-18T19:48:05.877Z,56.43
2023-04-18T19:50:33.859Z,56.38
2023-04-18T19:53:01.816Z,56.33
2023-04-18T19:55:31.689Z,56.35
2023-04-18T19:58:00.014Z,56.30
2023-04-18T20:00:28.569Z,56.26
2023-04-18T20:02:58.836Z,56.31
2023-04-18T20:05:27.363Z,56.33
2023-04-18T20:07:55.359Z,56.42
2023-04-18T20:10:23.382Z,56.50
2023-04-18T20:12:51.421Z,56.53
2023-04-18T20:15:19.414Z,56.59
2023-04-18T20:17:47.504Z,56.59
2023-04-18T20:20:15.597Z,56.51
2023-04-18T20:22:44.829Z,56.52
2023-04-18T20:25:12.824Z,56.56
2023-04-18T20:27:40.918Z,56.65
2023-04-18T20:30:09.055Z,56.70
2023-04-18T20:32:37.039Z,56.85
2023-04-18T20:35:05.653Z,56.89
2023-04-18T20:37:36.676Z,57.09
2023-04-18T20:40:07.982Z,57.22
2023-04-18T20:42:36.801Z,57.35
2023-04-18T20:45:22.927Z,57.39
2023-04-18T20:47:51.050Z,57.37
2023-04-18T20:50:20.564Z,57.30
2023-04-18T20:52:48.571Z,57.38
2023-04-18T20:55:18.317Z,57.40
2023-04-18T20:57:46.268Z,57.44
2023-04-18T21:00:14.512Z,57.56
2023-04-18T21:02:43.688Z,57.49
2023-04-18T21:05:12.216Z,57.56
2023-04-18T21:07:40.369Z,57.65
2023-04-18T21:10:08.610Z,57.72
2023-04-18T21:12:36.699Z,57.81
2023-04-18T21:15:05.591Z,57.80
2023-04-18T21:17:33.721Z,57.85
2023-04-18T21:20:02.079Z,57.82
2023-04-18T21:22:30.003Z,57.85
2023-04-18T21:24:57.940Z,57.87
2023-04-18T21:27:26.213Z,57.86
2023-04-18T21:29:54.113Z,57.98
2023-04-18T21:32:22.082Z,58.10
2023-04-18T21:34:50.081Z,58.18
2023-04-18T21:37:18.111Z,58.19
2023-04-18T21:39:46.214Z,58.21
2023-04-18T21:42:14.200Z,58.26
2023-04-18T21:44:42.121Z,58.27
2023-04-18T21:47:10.227Z,58.33
2023-04-18T21:49:38.226Z,58.31
2023-04-18T21:52:06.231Z,58.32
2023-04-18T21:54:34.243Z,58.41
2023-04-18T21:57:02.823Z,58.43
2023-04-18T21:59:31.109Z,58.38
2023-04-18T22:01:59.219Z,58.63
2023-04-18T22:04:27.798Z,58.77
2023-04-18T22:06:59.956Z,58.89
2023-04-18T22:09:28.626Z,58.97
2023-04-18T22:11:57.123Z,59.08
2023-04-18T22:14:26.079Z,59.12
2023-04-18T22:16:54.796Z,59.18
2023-04-18T22:19:22.896Z,59.17
2023-04-18T22:21:51.503Z,59.17
2023-04-18T22:24:19.751Z,59.29
2023-04-18T22:26:48.243Z,59.30
2023-04-18T22:29:16.303Z,59.19
2023-04-18T22:31:44.522Z,59.25
2023-04-18T22:34:12.807Z,59.23
2023-04-18T22:36:42.874Z,59.27
2023-04-18T22:39:12.354Z,59.32
2023-04-18T22:41:40.554Z,59.31
2023-04-18T22:44:08.471Z,59.32
2023-04-18T22:46:38.638Z,59.41
2023-04-18T22:49:07.441Z,59.51
2023-04-18T22:51:35.479Z,59.50
2023-04-18T22:54:03.509Z,59.51
2023-04-18T22:56:31.462Z,59.52
2023-04-18T22:58:59.463Z,59.58
2023-04-18T23:01:27.478Z,59.54
2023-04-18T23:03:56.020Z,59.54
2023-04-18T23:06:24.140Z,59.56
2023-04-18T23:08:52.212Z,59.65
2023-04-18T23:11:20.098Z,59.64
2023-04-18T23:13:48.002Z,59.71
2023-04-18T23:16:16.088Z,59.96
2023-04-18T23:18:44.382Z,59.90
2023-04-18T23:21:12.552Z,60.04
2023-04-18T23:23:40.562Z,60.06
2023-04-18T23:26:15.060Z,60.13
2023-04-18T23:28:43.203Z,60.24
2023-04-18T23:31:11.342Z,60.31
2023-04-18T23:33:39.302Z,60.28
2023-04-18T23:36:07.838Z,60.37
2023-04-18T23:38:44.031Z,60.45
2023-04-18T23:41:11.951Z,60.48
2023-04-18T23:43:39.863Z,60.51
2023-04-18T23:46:07.835Z,60.48
2023-04-18T23:48:36.058Z,60.58
2023-04-18T23:51:04.071Z,60.59
2023-04-18T23:53:32.246Z,60.65
2023-04-18T23:56:00.146Z,60.76
2023-04-18T23:58:28.267Z,60.84
